createdAt,value
2022-12-03T00:00:28.198Z,9.278483
2022-12-03T00:01:28.179Z,9.278331
2022-12-03T00:02:28.311Z,9.278345
2022-12-03T00:03:28.333Z,9.278262
2022-12-03T00:04:28.123Z,9.278332
2022-12-03T00:05:28.107Z,9.278370
2022-12-03T00:06:34.222Z,9.278459
2022-12-03T00:07:30.141Z,9.278509
2022-12-03T00:08:28.097Z,9.278497
2022-12-03T00:09:28.054Z,9.278358
2022-12-03T00:10:28.023Z,9.278375
2022-12-03T00:11:28.005Z,9.278356
2022-12-03T00:12:27.989Z,9.278393
2022-12-03T00:13:27.999Z,9.278447
2022-12-03T00:14:27.961Z,9.278521
2022-12-03T00:15:27.971Z,9.278520
2022-12-03T00:16:28.011Z,9.278605
2022-12-03T00:17:27.888Z,9.278547
2022-12-03T00:18:28.021Z,9.278539
2022-12-03T00:19:27.853Z,9.278635
2022-12-03T00:20:27.848Z,9.278728
2022-12-03T00:21:27.828Z,9.278746
2022-12-03T00:22:27.811Z,9.278670
2022-12-03T00:23:27.856Z,9.278609
2022-12-03T00:24:27.770Z,9.278674
2022-12-03T00:25:27.764Z,9.278641
2022-12-03T00:26:27.744Z,9.278603
2022-12-03T00:27:27.718Z,9.278469
2022-12-03T00:28:27.732Z,9.278455
2022-12-03T00:29:27.684Z,9.278439
2022-12-03T00:30:27.661Z,9.278548
2022-12-03T00:31:27.691Z,9.278600
2022-12-03T00:32:27.642Z,9.278396
2022-12-03T00:33:27.660Z,9.278269
2022-12-03T00:34:27.595Z,9.278430
2022-12-03T00:35:27.584Z,9.278399
2022-12-03T00:36:27.573Z,9.278418
2022-12-03T00:37:27.556Z,9.278419
2022-12-03T00:38:27.552Z,9.278441
2022-12-03T00:39:27.526Z,9.278508
2022-12-03T00:40:27.508Z,9.278482
2022-12-03T00:41:27.479Z,9.278465
2022-12-03T00:42:27.509Z,9.278455
2022-12-03T00:43:27.493Z,9.278580
2022-12-03T00:44:27.441Z,9.278502
2022-12-03T00:45:27.403Z,9.278350
2022-12-03T00:46:27.429Z,9.278459
2022-12-03T00:47:27.378Z,9.278437
2022-12-03T00:48:27.381Z,9.278243
2022-12-03T00:49:27.350Z,9.278321
2022-12-03T00:50:27.325Z,9.278290
2022-12-03T00:51:27.303Z,9.278397
2022-12-03T00:52:27.285Z,9.278326
2022-12-03T00:53:27.299Z,9.278459
2022-12-03T00:54:31.800Z,9.278474
2022-12-03T00:55:29.244Z,9.278417
2022-12-03T00:56:27.226Z,9.278350
2022-12-03T00:57:27.213Z,9.278438
2022-12-03T00:58:27.222Z,9.278413
2022-12-03T00:59:27.173Z,9.278377
2022-12-03T01:00:27.152Z,9.278330
2022-12-03T01:01:27.190Z,9.278112
2022-12-03T01:02:27.115Z,9.278139
2022-12-03T01:03:27.126Z,9.278271
2022-12-03T01:04:27.157Z,9.278440
2022-12-03T01:05:27.067Z,9.278423
2022-12-03T01:06:27.043Z,9.278463
2022-12-03T01:07:27.112Z,9.278467
2022-12-03T01:08:27.035Z,9.278329
2022-12-03T01:09:27.035Z,9.278438
2022-12-03T01:10:26.970Z,9.278422
2022-12-03T01:11:26.953Z,9.278401
2022-12-03T01:12:26.934Z,9.278253
2022-12-03T01:13:26.963Z,9.278432
2022-12-03T01:14:26.911Z,9.278524
2022-12-03T01:15:26.884Z,9.278369
2022-12-03T01:16:26.942Z,9.278351
2022-12-03T01:17:26.853Z,9.278307
2022-12-03T01:18:26.892Z,9.278285
2022-12-03T01:19:26.827Z,9.278403
2022-12-03T01:20:26.803Z,9.278308
2022-12-03T01:21:26.779Z,9.278480
2022-12-03T01:22:26.771Z,9.278436
2022-12-03T01:23:26.743Z,9.278427
2022-12-03T01:24:28.942Z,9.278421
2022-12-03T01:25:26.703Z,9.278388
2022-12-03T01:26:26.697Z,9.278412
2022-12-03T01:27:26.678Z,9.278376
2022-12-03T01:28:26.659Z,9.278290
2022-12-03T01:29:26.678Z,9.278401
2022-12-03T01:30:26.622Z,9.278333
2022-12-03T01:31:26.647Z,9.278331
2022-12-03T01:32:26.590Z,9.278412
2022-12-03T01:33:26.577Z,9.278344
2022-12-03T01:34:26.590Z,9.278291
2022-12-03T01:35:26.548Z,9.278352
2022-12-03T01:36:26.520Z,9.278293
2022-12-03T01:37:26.510Z,9.278365
2022-12-03T01:38:26.494Z,9.278311
2022-12-03T01:39:26.506Z,9.278261
2022-12-03T01:40:26.447Z,9.278273
2022-12-03T01:41:26.434Z,9.278203
2022-12-03T01:42:26.415Z,9.278254
2022-12-03T01:43:26.398Z,9.278222
2022-12-03T01:44:26.407Z,9.278314
2022-12-03T01:45:26.365Z,9.278292
2022-12-03T01:46:26.401Z,9.278395
2022-12-03T01:47:26.329Z,9.278388
2022-12-03T01:48:26.304Z,9.278411
2022-12-03T01:49:26.323Z,9.278438
2022-12-03T01:50:26.263Z,9.278409
2022-12-03T01:51:27.260Z,9.278381
2022-12-03T01:52:26.260Z,9.278342
2022-12-03T01:53:26.224Z,9.278341
2022-12-03T01:54:26.240Z,9.278328
2022-12-03T01:55:26.188Z,9.278495
2022-12-03T01:56:26.177Z,9.278471
2022-12-03T01:57:26.152Z,9.278529
2022-12-03T01:58:26.150Z,9.278523
2022-12-03T01:59:26.152Z,9.278456
2022-12-03T02:00:26.106Z,9.278527
2022-12-03T02:01:26.132Z,9.278538
2022-12-03T02:02:26.069Z,9.278453
2022-12-03T02:03:26.039Z,9.278539
2022-12-03T02:04:26.141Z,9.278429
2022-12-03T02:05:27.013Z,9.278428
2022-12-03T02:06:25.992Z,9.278461
2022-12-03T02:07:26.038Z,9.278331
2022-12-03T02:08:25.960Z,9.278348
2022-12-03T02:09:25.972Z,9.278335
2022-12-03T02:10:25.927Z,9.278390
2022-12-03T02:11:25.924Z,9.278563
2022-12-03T02:12:25.899Z,9.278457
2022-12-03T02:13:25.891Z,9.278323
2022-12-03T02:14:25.891Z,9.278411
2022-12-03T02:15:25.854Z,9.278332
2022-12-03T02:16:25.868Z,9.278392
2022-12-03T02:17:25.810Z,9.278296
2022-12-03T02:18:25.785Z,9.278340
2022-12-03T02:19:25.831Z,9.278375
2022-12-03T02:20:25.760Z,9.278321
2022-12-03T02:21:25.736Z,9.278271
2022-12-03T02:22:25.717Z,9.278404
2022-12-03T02:23:25.703Z,9.278434
2022-12-03T02:24:25.725Z,9.278367
2022-12-03T02:25:25.665Z,9.278294
2022-12-03T02:26:25.646Z,9.278461
2022-12-03T02:27:25.626Z,9.278397
2022-12-03T02:28:25.609Z,9.278457
2022-12-03T02:29:25.634Z,9.278375
2022-12-03T02:30:25.591Z,9.278317
2022-12-03T02:31:25.631Z,9.278354
2022-12-03T02:32:25.558Z,9.278376
2022-12-03T02:33:25.529Z,9.278412
2022-12-03T02:34:25.539Z,9.278395
2022-12-03T02:35:25.494Z,9.278331
2022-12-03T02:36:25.482Z,9.278384
2022-12-03T02:37:25.453Z,9.278365
2022-12-03T02:38:25.448Z,9.278342
2022-12-03T02:39:25.465Z,9.278380
2022-12-03T02:40:25.404Z,9.278458
2022-12-03T02:41:25.388Z,9.278465
2022-12-03T02:42:25.368Z,9.278374
2022-12-03T02:43:25.351Z,9.278302
2022-12-03T02:44:25.377Z,9.278244
2022-12-03T02:45:25.327Z,9.278193
2022-12-03T02:46:25.389Z,9.278242
2022-12-03T02:47:25.294Z,9.278278
2022-12-03T02:48:25.262Z,9.278252
2022-12-03T02:49:25.293Z,9.278224
2022-12-03T02:50:25.231Z,9.278170
2022-12-03T02:51:25.227Z,9.278143
2022-12-03T02:52:25.194Z,9.278102
2022-12-03T02:53:25.190Z,9.278150
2022-12-03T02:54:26.190Z,9.278074
2022-12-03T02:55:25.149Z,9.278089
2022-12-03T02:56:25.128Z,9.278137
2022-12-03T02:57:25.111Z,9.278217
2022-12-03T02:58:25.090Z,9.278294
2022-12-03T02:59:25.160Z,9.278299
2022-12-03T03:00:25.058Z,9.278314
2022-12-03T03:01:25.096Z,9.278431
2022-12-03T03:02:25.065Z,9.278408
2022-12-03T03:03:25.008Z,9.278301
2022-12-03T03:04:25.063Z,9.278224
2022-12-03T03:05:24.967Z,9.278238
2022-12-03T03:06:24.950Z,9.278276
2022-12-03T03:07:24.974Z,9.278358
2022-12-03T03:08:24.915Z,9.278313
2022-12-03T03:09:24.944Z,9.278354
2022-12-03T03:10:24.919Z,9.278281
2022-12-03T03:11:24.866Z,9.278127
2022-12-03T03:12:24.873Z,9.278202
2022-12-03T03:13:24.832Z,9.278440
2022-12-03T03:14:24.890Z,9.278290
2022-12-03T03:15:24.805Z,9.278228
2022-12-03T03:16:24.842Z,9.278240
2022-12-03T03:17:24.766Z,9.278211
2022-12-03T03:18:24.753Z,9.278226
2022-12-03T03:19:24.875Z,9.278133
2022-12-03T03:20:24.707Z,9.278248
2022-12-03T03:21:24.684Z,9.278091
2022-12-03T03:22:24.680Z,9.278315
2022-12-03T03:23:24.660Z,9.278256
2022-12-03T03:24:24.660Z,9.278374
2022-12-03T03:25:24.673Z,9.278345
2022-12-03T03:26:24.598Z,9.278337
2022-12-03T03:27:24.610Z,9.278339
2022-12-03T03:28:24.568Z,9.278313
2022-12-03T03:29:24.582Z,9.278302
2022-12-03T03:30:24.526Z,9.278299
2022-12-03T03:31:24.555Z,9.278253
2022-12-03T03:32:24.485Z,9.278283
2022-12-03T03:33:24.479Z,9.278307
2022-12-03T03:34:24.496Z,9.278333
2022-12-03T03:35:24.448Z,9.278302
2022-12-03T03:36:24.419Z,9.278266
2022-12-03T03:37:24.406Z,9.278193
2022-12-03T03:38:24.383Z,9.278193
2022-12-03T03:39:24.397Z,9.278159
2022-12-03T03:40:24.344Z,9.278167
2022-12-03T03:41:24.338Z,9.278139
2022-12-03T03:42:24.314Z,9.278159
2022-12-03T03:43:24.301Z,9.278226
2022-12-03T03:44:24.313Z,9.278264
2022-12-03T03:45:29.134Z,9.278316
2022-12-03T03:46:26.296Z,9.278300
2022-12-03T03:47:24.225Z,9.278252
2022-12-03T03:48:24.211Z,9.278276
2022-12-03T03:49:24.241Z,9.278176
2022-12-03T03:50:24.178Z,9.278122
2022-12-03T03:51:24.253Z,9.278212
2022-12-03T03:52:24.141Z,9.278354
2022-12-03T03:53:24.120Z,9.278276
2022-12-03T03:54:24.129Z,9.278361
2022-12-03T03:55:24.083Z,9.278077
2022-12-03T03:56:24.074Z,9.278274
2022-12-03T03:57:24.045Z,9.278068
2022-12-03T03:58:24.048Z,9.278113
2022-12-03T03:59:24.050Z,9.278216
2022-12-03T04:00:24.012Z,9.278213
2022-12-03T04:01:24.080Z,9.278292
2022-12-03T04:02:23.970Z,9.278245
2022-12-03T04:03:23.940Z,9.278312
2022-12-03T04:04:24.042Z,9.278103
2022-12-03T04:05:23.908Z,9.277956
2022-12-03T04:06:23.892Z,9.278214
2022-12-03T04:07:23.873Z,9.278284
2022-12-03T04:08:23.859Z,9.278238
2022-12-03T04:09:23.871Z,9.278193
2022-12-03T04:10:23.819Z,9.278212
2022-12-03T04:11:23.804Z,9.278143
2022-12-03T04:12:23.789Z,9.278162
2022-12-03T04:13:23.765Z,9.278267
2022-12-03T04:14:23.774Z,9.278314
2022-12-03T04:15:23.733Z,9.278295
2022-12-03T04:16:23.785Z,9.278246
2022-12-03T04:17:23.686Z,9.278228
2022-12-03T04:18:23.673Z,9.278218
2022-12-03T04:19:23.688Z,9.278240
2022-12-03T04:20:23.642Z,9.278225
2022-12-03T04:21:23.662Z,9.278195
2022-12-03T04:22:23.624Z,9.278211
2022-12-03T04:23:29.248Z,9.278209
2022-12-03T04:24:25.606Z,9.278238
2022-12-03T04:25:23.562Z,9.278236
2022-12-03T04:26:23.532Z,9.278178
2022-12-03T04:27:23.606Z,9.278182
2022-12-03T04:28:23.499Z,9.278193
2022-12-03T04:29:23.544Z,9.278243
2022-12-03T04:30:23.524Z,9.278214
2022-12-03T04:31:23.505Z,9.278221
2022-12-03T04:32:23.433Z,9.278273
2022-12-03T04:33:23.412Z,9.278258
2022-12-03T04:34:23.438Z,9.278344
2022-12-03T04:35:23.415Z,9.278261
2022-12-03T04:36:23.359Z,9.278279
2022-12-03T04:37:23.344Z,9.278317
2022-12-03T04:38:23.327Z,9.278326
2022-12-03T04:39:23.357Z,9.278219
2022-12-03T04:40:23.311Z,9.278298
2022-12-03T04:41:23.276Z,9.278279
2022-12-03T04:42:23.265Z,9.278276
2022-12-03T04:43:23.236Z,9.278291
2022-12-03T04:44:23.244Z,9.278277
2022-12-03T04:45:23.247Z,9.278275
2022-12-03T04:46:23.281Z,9.278340
2022-12-03T04:47:23.168Z,9.278198
2022-12-03T04:48:23.159Z,9.278248
2022-12-03T04:49:23.138Z,9.278292
2022-12-03T04:50:23.184Z,9.278273
2022-12-03T04:51:23.107Z,9.278241
2022-12-03T04:52:23.096Z,9.278248
2022-12-03T04:53:23.062Z,9.278240
2022-12-03T04:54:23.059Z,9.278278
2022-12-03T04:55:23.059Z,9.278349
2022-12-03T04:56:23.019Z,9.278275
2022-12-03T04:57:22.991Z,9.278282
2022-12-03T04:58:22.978Z,9.278235
2022-12-03T04:59:22.969Z,9.278376
2022-12-03T05:00:22.983Z,9.278286
2022-12-03T05:01:23.021Z,9.278281
2022-12-03T05:02:22.976Z,9.278123
2022-12-03T05:03:22.902Z,9.278194
2022-12-03T05:04:22.879Z,9.278196
2022-12-03T05:05:22.887Z,9.278147
2022-12-03T05:06:22.841Z,9.278191
2022-12-03T05:07:22.825Z,9.278170
2022-12-03T05:08:22.815Z,9.278266
2022-12-03T05:09:22.792Z,9.278419
2022-12-03T05:10:22.804Z,9.278441
2022-12-03T05:11:22.757Z,9.278333
2022-12-03T05:12:22.734Z,9.278309
2022-12-03T05:13:22.720Z,9.278188
2022-12-03T05:14:22.723Z,9.278142
2022-12-03T05:15:23.713Z,9.278298
2022-12-03T05:16:22.728Z,9.278227
2022-12-03T05:17:22.660Z,9.278237
2022-12-03T05:18:22.668Z,9.278236
2022-12-03T05:19:22.635Z,9.278284
2022-12-03T05:20:22.625Z,9.278395
2022-12-03T05:21:22.586Z,9.278284
2022-12-03T05:22:22.570Z,9.278357
2022-12-03T05:23:22.567Z,9.278189
2022-12-03T05:24:22.548Z,9.278179
2022-12-03T05:25:22.570Z,9.278267
2022-12-03T05:26:22.506Z,9.278337
2022-12-03T05:27:24.170Z,9.278355
2022-12-03T05:28:23.462Z,9.278350
2022-12-03T05:29:22.445Z,9.278297
2022-12-03T05:30:22.503Z,9.278267
2022-12-03T05:31:22.465Z,9.278206
2022-12-03T05:32:22.388Z,9.278360
2022-12-03T05:33:22.383Z,9.278297
2022-12-03T05:34:22.356Z,9.278274
2022-12-03T05:35:22.363Z,9.278331
2022-12-03T05:36:22.316Z,9.278336
2022-12-03T05:37:23.360Z,9.278253
2022-12-03T05:38:22.278Z,9.278330
2022-12-03T05:39:22.274Z,9.278233
2022-12-03T05:40:22.285Z,9.277760
2022-12-03T05:41:22.241Z,9.278135
2022-12-03T05:42:22.210Z,9.278259
2022-12-03T05:43:22.207Z,9.278291
2022-12-03T05:44:22.176Z,9.278729
2022-12-03T05:45:22.202Z,9.279345
2022-12-03T05:46:22.244Z,9.278919
2022-12-03T05:47:22.131Z,9.278498
2022-12-03T05:48:22.101Z,9.278298
2022-12-03T05:49:22.089Z,9.278243
2022-12-03T05:50:22.095Z,9.278070
2022-12-03T05:51:22.048Z,9.278011
2022-12-03T05:52:22.061Z,9.278185
2022-12-03T05:53:22.018Z,9.278329
2022-12-03T05:54:21.993Z,9.278090
2022-12-03T05:55:22.013Z,9.278465
2022-12-03T05:56:21.976Z,9.278438
2022-12-03T05:57:21.948Z,9.278424
2022-12-03T05:58:21.937Z,9.278455
2022-12-03T05:59:21.907Z,9.278585
2022-12-03T06:00:21.923Z,9.278203
2022-12-03T06:01:21.872Z,9.277943
2022-12-03T06:02:22.002Z,9.278131
2022-12-03T06:03:22.035Z,9.278287
2022-12-03T06:04:21.833Z,9.278090
2022-12-03T06:05:21.840Z,9.278249
2022-12-03T06:06:21.793Z,9.278216
2022-12-03T06:07:21.764Z,9.278073
2022-12-03T06:08:21.768Z,9.278251
2022-12-03T06:09:21.764Z,9.278120
2022-12-03T06:10:21.755Z,9.278209
2022-12-03T06:11:21.700Z,9.278153
2022-12-03T06:12:21.687Z,9.278104
2022-12-03T06:13:21.667Z,9.278275
2022-12-03T06:14:21.649Z,9.278266
2022-12-03T06:15:21.663Z,9.278090
2022-12-03T06:16:21.682Z,9.277930
2022-12-03T06:17:21.619Z,9.278373
2022-12-03T06:18:21.579Z,9.278240
2022-12-03T06:19:21.554Z,9.278260
2022-12-03T06:20:21.585Z,9.278652
2022-12-03T06:21:21.533Z,9.278591
2022-12-03T06:22:21.505Z,9.278337
2022-12-03T06:23:21.495Z,9.278255
2022-12-03T06:24:21.469Z,9.278107
2022-12-03T06:25:21.488Z,9.278155
2022-12-03T06:26:21.436Z,9.278306
2022-12-03T06:27:21.431Z,9.278277
2022-12-03T06:28:21.410Z,9.278082
2022-12-03T06:29:21.392Z,9.277813
2022-12-03T06:30:21.411Z,9.278023
2022-12-03T06:31:21.445Z,9.278095
2022-12-03T06:32:21.385Z,9.278173
2022-12-03T06:33:21.317Z,9.278125
2022-12-03T06:34:21.292Z,9.278231
2022-12-03T06:35:21.328Z,9.278218
2022-12-03T06:36:23.182Z,9.278327
2022-12-03T06:37:22.247Z,9.278331
2022-12-03T06:38:21.217Z,9.278297
2022-12-03T06:39:21.209Z,9.278243
2022-12-03T06:40:21.220Z,9.278286
2022-12-03T06:41:21.167Z,9.278445
2022-12-03T06:42:21.149Z,9.278539
2022-12-03T06:43:21.135Z,9.278520
2022-12-03T06:44:21.110Z,9.278484
2022-12-03T06:45:21.138Z,9.278426
2022-12-03T06:46:21.198Z,9.278445
2022-12-03T06:47:21.063Z,9.278605
2022-12-03T06:48:21.055Z,9.278589
2022-12-03T06:49:21.024Z,9.278536
2022-12-03T06:50:21.040Z,9.278442
2022-12-03T06:51:20.992Z,9.278627
2022-12-03T06:52:20.976Z,9.278655
2022-12-03T06:53:20.957Z,9.278726
2022-12-03T06:54:20.948Z,9.278638
2022-12-03T06:55:20.957Z,9.278748
2022-12-03T06:56:22.519Z,9.278421
2022-12-03T06:57:21.908Z,9.278675
2022-12-03T06:58:20.872Z,9.278731
2022-12-03T06:59:20.862Z,9.278435
2022-12-03T07:00:20.868Z,9.278528
2022-12-03T07:01:20.905Z,9.278474
2022-12-03T07:02:20.806Z,9.278302
2022-12-03T07:03:20.834Z,9.278248
2022-12-03T07:04:20.773Z,9.278501
2022-12-03T07:05:20.782Z,9.278380
2022-12-03T07:06:20.731Z,9.278263
2022-12-03T07:07:20.743Z,9.278316
2022-12-03T07:08:20.698Z,9.278319
2022-12-03T07:09:20.694Z,9.278411
2022-12-03T07:10:20.705Z,9.278183
2022-12-03T07:11:20.654Z,9.278141
2022-12-03T07:12:20.628Z,9.278256
2022-12-03T07:13:20.615Z,9.278341
2022-12-03T07:14:20.595Z,9.278322
2022-12-03T07:15:20.610Z,9.278299
2022-12-03T07:16:20.614Z,9.278185
2022-12-03T07:17:20.558Z,9.278276
2022-12-03T07:18:20.521Z,9.278410
2022-12-03T07:19:20.516Z,9.278315
2022-12-03T07:20:20.490Z,9.278294
2022-12-03T07:21:20.517Z,9.278308
2022-12-03T07:22:20.468Z,9.278257
2022-12-03T07:23:20.446Z,9.278290
2022-12-03T07:24:20.422Z,9.278284
2022-12-03T07:25:23.425Z,9.278196
2022-12-03T07:26:21.427Z,9.278079
2022-12-03T07:27:20.369Z,9.278123
2022-12-03T07:28:20.361Z,9.278425
2022-12-03T07:29:20.338Z,9.278514
2022-12-03T07:30:20.323Z,9.278415
2022-12-03T07:31:20.399Z,9.278377
2022-12-03T07:32:21.283Z,9.278402
2022-12-03T07:33:20.265Z,9.278376
2022-12-03T07:34:20.247Z,9.278316
2022-12-03T07:35:20.230Z,9.278327
2022-12-03T07:36:20.245Z,9.278454
2022-12-03T07:37:23.266Z,9.278297
2022-12-03T07:38:21.187Z,9.278370
2022-12-03T07:39:20.167Z,9.278310
2022-12-03T07:40:20.149Z,9.278371
2022-12-03T07:41:20.159Z,9.278417
2022-12-03T07:42:20.113Z,9.278471
2022-12-03T07:43:20.105Z,9.278396
2022-12-03T07:44:20.080Z,9.278448
2022-12-03T07:45:20.086Z,9.278374
2022-12-03T07:46:20.120Z,9.278248
2022-12-03T07:47:20.028Z,9.278313
2022-12-03T07:48:20.009Z,9.278326
2022-12-03T07:49:19.992Z,9.278157
2022-12-03T07:50:19.973Z,9.278192
2022-12-03T07:51:19.993Z,9.278116
2022-12-03T07:52:19.938Z,9.278194
2022-12-03T07:53:19.938Z,9.278114
2022-12-03T07:54:19.908Z,9.278154
2022-12-03T07:55:19.905Z,9.278339
2022-12-03T07:56:19.900Z,9.278344
2022-12-03T07:57:19.856Z,9.278303
2022-12-03T07:58:19.847Z,9.278333
2022-12-03T07:59:19.817Z,9.278306
2022-12-03T08:00:19.812Z,9.278265
2022-12-03T08:01:19.887Z,9.278284
2022-12-03T08:02:21.838Z,9.278283
2022-12-03T08:03:20.757Z,9.278089
2022-12-03T08:04:19.748Z,9.278217
2022-12-03T08:05:19.718Z,9.278189
2022-12-03T08:06:19.728Z,9.278224
2022-12-03T08:07:19.732Z,9.278102
2022-12-03T08:08:19.753Z,9.278115
2022-12-03T08:09:19.645Z,9.278131
2022-12-03T08:10:19.633Z,9.278060
2022-12-03T08:11:19.643Z,9.278167
2022-12-03T08:12:19.598Z,9.278161
2022-12-03T08:13:19.583Z,9.278276
2022-12-03T08:14:19.609Z,9.278257
2022-12-03T08:15:19.548Z,9.278175
2022-12-03T08:16:19.611Z,9.278150
2022-12-03T08:17:19.516Z,9.278099
2022-12-03T08:18:19.505Z,9.278320
2022-12-03T08:19:19.483Z,9.278383
2022-12-03T08:20:19.459Z,9.278144
2022-12-03T08:21:19.467Z,9.278427
2022-12-03T08:22:20.423Z,9.278290
2022-12-03T08:23:19.409Z,9.278025
2022-12-03T08:24:19.395Z,9.278081
2022-12-03T08:25:19.421Z,9.278222
2022-12-03T08:26:19.377Z,9.278257
2022-12-03T08:27:19.330Z,9.278218
2022-12-03T08:28:19.315Z,9.278311
2022-12-03T08:29:19.297Z,9.278195
2022-12-03T08:30:19.312Z,9.278272
2022-12-03T08:31:19.320Z,9.278270
2022-12-03T08:32:19.308Z,9.278209
2022-12-03T08:33:19.223Z,9.278084
2022-12-03T08:34:19.271Z,9.278245
2022-12-03T08:35:19.244Z,9.278183
2022-12-03T08:36:19.199Z,9.278149
2022-12-03T08:37:19.150Z,9.278153
2022-12-03T08:38:19.185Z,9.278120
2022-12-03T08:39:19.118Z,9.278216
2022-12-03T08:40:19.114Z,9.278163
2022-12-03T08:41:19.116Z,9.278079
2022-12-03T08:42:19.072Z,9.278151
2022-12-03T08:43:19.057Z,9.278112
2022-12-03T08:44:19.052Z,9.278329
2022-12-03T08:45:19.007Z,9.278264
2022-12-03T08:46:19.096Z,9.278219
2022-12-03T08:47:18.971Z,9.278156
2022-12-03T08:48:18.968Z,9.278245
2022-12-03T08:49:18.940Z,9.278210
2022-12-03T08:50:18.931Z,9.278285
2022-12-03T08:51:18.937Z,9.278237
2022-12-03T08:52:18.904Z,9.278199
2022-12-03T08:53:18.903Z,9.278332
2022-12-03T08:54:18.856Z,9.278143
2022-12-03T08:55:18.834Z,9.277993
2022-12-03T08:56:18.843Z,9.278222
2022-12-03T08:57:18.798Z,9.278260
2022-12-03T08:58:19.706Z,9.278011
2022-12-03T08:59:18.773Z,9.278143
2022-12-03T09:00:19.570Z,9.278211
2022-12-03T09:01:18.843Z,9.278295
2022-12-03T09:02:18.713Z,9.278271
2022-12-03T09:03:18.705Z,9.278288
2022-12-03T09:04:18.779Z,9.278303
2022-12-03T09:05:18.694Z,9.278334
2022-12-03T09:06:18.698Z,9.278331
2022-12-03T09:07:18.636Z,9.278293
2022-12-03T09:08:18.721Z,9.278317
2022-12-03T09:09:18.594Z,9.278164
2022-12-03T09:10:18.575Z,9.278261
2022-12-03T09:11:18.601Z,9.278219
2022-12-03T09:12:18.542Z,9.278349
2022-12-03T09:13:18.522Z,9.278323
2022-12-03T09:14:18.966Z,9.278321
2022-12-03T09:15:19.479Z,9.278370
2022-12-03T09:16:18.522Z,9.278416
2022-12-03T09:17:18.449Z,9.278348
2022-12-03T09:18:18.447Z,9.278323
2022-12-03T09:19:18.427Z,9.278334
2022-12-03T09:20:18.393Z,9.278291
2022-12-03T09:21:18.414Z,9.278247
2022-12-03T09:22:18.359Z,9.278291
2022-12-03T09:23:18.341Z,9.278339
2022-12-03T09:24:18.338Z,9.278268
2022-12-03T09:25:18.324Z,9.278266
2022-12-03T09:26:18.326Z,9.278307
2022-12-03T09:27:18.285Z,9.278159
2022-12-03T09:28:18.264Z,9.278196
2022-12-03T09:29:18.236Z,9.278228
2022-12-03T09:30:18.239Z,9.278422
2022-12-03T09:31:18.285Z,9.278357
2022-12-03T09:32:18.914Z,9.278338
2022-12-03T09:33:19.171Z,9.278336
2022-12-03T09:34:18.155Z,9.278344
2022-12-03T09:35:18.156Z,9.278324
2022-12-03T09:36:18.145Z,9.278413
2022-12-03T09:37:18.117Z,9.278194
2022-12-03T09:38:18.077Z,9.278347
2022-12-03T09:39:19.072Z,9.278249
2022-12-03T09:40:18.046Z,9.278247
2022-12-03T09:41:18.058Z,9.278306
2022-12-03T09:42:18.010Z,9.278367
2022-12-03T09:43:18.011Z,9.278383
2022-12-03T09:44:18.453Z,9.278371
2022-12-03T09:45:17.980Z,9.278337
2022-12-03T09:46:18.080Z,9.278325
2022-12-03T09:47:17.937Z,9.278326
2022-12-03T09:48:17.900Z,9.278391
2022-12-03T09:49:17.899Z,9.278387
2022-12-03T09:50:17.875Z,9.278365
2022-12-03T09:51:17.924Z,9.278359
2022-12-03T09:52:17.833Z,9.278396
2022-12-03T09:53:17.836Z,9.278335
2022-12-03T09:54:17.806Z,9.278398
2022-12-03T09:55:17.885Z,9.278420
2022-12-03T09:56:17.796Z,9.278424
2022-12-03T09:57:17.752Z,9.278368
2022-12-03T09:58:17.732Z,9.278348
2022-12-03T09:59:17.716Z,9.278299
2022-12-03T10:00:17.712Z,9.278467
2022-12-03T10:01:17.849Z,9.278359
2022-12-03T10:02:17.677Z,9.278405
2022-12-03T10:03:17.639Z,9.278398
2022-12-03T10:04:17.767Z,9.278353
2022-12-03T10:05:17.614Z,9.278260
2022-12-03T10:06:17.618Z,9.278318
2022-12-03T10:07:17.567Z,9.278203
2022-12-03T10:08:18.660Z,9.278319
2022-12-03T10:09:17.683Z,9.278297
2022-12-03T10:10:17.533Z,9.278326
2022-12-03T10:11:17.547Z,9.278402
2022-12-03T10:12:17.488Z,9.278210
2022-12-03T10:13:21.052Z,9.278285
2022-12-03T10:14:19.467Z,9.278439
2022-12-03T10:15:17.433Z,9.278555
2022-12-03T10:16:17.517Z,9.278355
2022-12-03T10:17:17.507Z,9.278361
2022-12-03T10:18:17.386Z,9.278446
2022-12-03T10:19:17.362Z,9.278469
2022-12-03T10:20:17.346Z,9.278483
2022-12-03T10:21:17.368Z,9.278471
2022-12-03T10:22:17.342Z,9.278475
2022-12-03T10:23:17.320Z,9.278350
2022-12-03T10:24:17.295Z,9.278447
2022-12-03T10:25:17.251Z,9.278495
2022-12-03T10:26:17.292Z,9.278389
2022-12-03T10:27:17.213Z,9.278427
2022-12-03T10:28:17.208Z,9.278454
2022-12-03T10:29:17.208Z,9.278393
2022-12-03T10:30:17.176Z,9.278509
2022-12-03T10:31:17.228Z,9.278491
2022-12-03T10:32:17.178Z,9.278449
2022-12-03T10:33:19.084Z,9.278406
2022-12-03T10:34:18.150Z,9.278357
2022-12-03T10:35:17.087Z,9.278310
2022-12-03T10:36:17.066Z,9.278526
2022-12-03T10:37:17.063Z,9.278689
2022-12-03T10:38:18.046Z,9.278589
2022-12-03T10:39:17.018Z,9.278518
2022-12-03T10:40:16.990Z,9.278521
2022-12-03T10:41:17.021Z,9.278521
2022-12-03T10:42:16.996Z,9.278477
2022-12-03T10:43:16.942Z,9.278397
2022-12-03T10:44:16.933Z,9.278298
2022-12-03T10:45:16.920Z,9.278249
2022-12-03T10:46:17.029Z,9.278317
2022-12-03T10:47:17.053Z,9.278229
2022-12-03T10:48:16.878Z,9.278291
2022-12-03T10:49:16.835Z,9.278313
2022-12-03T10:50:16.830Z,9.278406
2022-12-03T10:51:16.799Z,9.278394
2022-12-03T10:52:21.226Z,9.278538
2022-12-03T10:53:17.777Z,9.278725
2022-12-03T10:54:16.753Z,9.278618
2022-12-03T10:55:16.731Z,9.278501
2022-12-03T10:56:16.716Z,9.278527
2022-12-03T10:57:16.729Z,9.278506
2022-12-03T10:58:16.689Z,9.278487
2022-12-03T10:59:16.677Z,9.278511
2022-12-03T11:00:16.648Z,9.278507
2022-12-03T11:01:16.698Z,9.278399
2022-12-03T11:02:16.650Z,9.278407
2022-12-03T11:03:16.677Z,9.278440
2022-12-03T11:04:16.675Z,9.278417
2022-12-03T11:05:16.574Z,9.278504
2022-12-03T11:06:16.603Z,9.278508
2022-12-03T11:07:16.593Z,9.278558
2022-12-03T11:08:16.662Z,9.278509
2022-12-03T11:09:16.522Z,9.278482
2022-12-03T11:10:16.508Z,9.278394
2022-12-03T11:11:16.462Z,9.278339
2022-12-03T11:12:16.474Z,9.278411
2022-12-03T11:13:16.419Z,9.278320
2022-12-03T11:14:22.670Z,9.278462
2022-12-03T11:15:18.384Z,9.278520
2022-12-03T11:16:16.440Z,9.278478
2022-12-03T11:17:16.385Z,9.278327
2022-12-03T11:18:16.347Z,9.278335
2022-12-03T11:19:16.318Z,9.278397
2022-12-03T11:20:22.220Z,9.278457
2022-12-03T11:21:18.283Z,9.278597
2022-12-03T11:22:16.295Z,9.279011
2022-12-03T11:23:16.250Z,9.278890
2022-12-03T11:24:16.239Z,9.278625
2022-12-03T11:25:16.217Z,9.278162
2022-12-03T11:26:19.165Z,9.278314
2022-12-03T11:27:17.218Z,9.278406
2022-12-03T11:28:16.167Z,9.278475
2022-12-03T11:29:16.154Z,9.278410
2022-12-03T11:30:16.199Z,9.278309
2022-12-03T11:31:16.161Z,9.278198
2022-12-03T11:32:16.119Z,9.278309
2022-12-03T11:33:16.077Z,9.278487
2022-12-03T11:34:16.063Z,9.278470
2022-12-03T11:35:16.065Z,9.278581
2022-12-03T11:36:16.031Z,9.278179
2022-12-03T11:37:16.042Z,9.278270
2022-12-03T11:38:16.034Z,9.278303
2022-12-03T11:39:15.996Z,9.277985
2022-12-03T11:40:16.057Z,9.278172
2022-12-03T11:41:15.971Z,9.278398
2022-12-03T11:42:15.963Z,9.278347
2022-12-03T11:43:15.914Z,9.278255
2022-12-03T11:44:15.882Z,9.278238